createdAt,value
2023-02-03T00:01:05.635Z,96.30
2023-02-03T00:03:36.155Z,96.10
2023-02-03T00:06:04.393Z,95.90
2023-02-03T00:08:32.172Z,95.40
2023-02-03T00:11:00.400Z,94.90
2023-02-03T00:13:27.944Z,95.50
2023-02-03T00:15:55.728Z,94.90
2023-02-03T00:18:23.291Z,95.20
2023-02-03T00:20:50.807Z,95.70
2023-02-03T00:23:18.306Z,94.70
2023-02-03T00:25:46.183Z,94.70
2023-02-03T00:28:13.719Z,94.30
2023-02-03T00:30:41.501Z,94.40
2023-02-03T00:33:09.069Z,94.40
2023-02-03T00:35:40.400Z,93.40
2023-02-03T00:38:07.943Z,94.60
2023-02-03T00:40:35.470Z,93.70
2023-02-03T00:43:03.275Z,93.90
2023-02-03T00:45:30.877Z,93.60
2023-02-03T00:47:58.444Z,93.70
2023-02-03T00:50:26.290Z,93.80
2023-02-03T00:52:54.011Z,93.60
2023-02-03T00:55:21.546Z,94.20
2023-02-03T00:57:49.262Z,93.70
2023-02-03T01:00:17.820Z,93.10
2023-02-03T01:02:45.785Z,93.40
2023-02-03T01:05:14.650Z,92.80
2023-02-03T01:07:43.195Z,92.90
2023-02-03T01:10:11.312Z,92.30
2023-02-03T01:12:38.807Z,92.90
2023-02-03T01:15:06.723Z,94.20
2023-02-03T01:17:34.514Z,93.10
2023-02-03T01:20:02.033Z,94.30
2023-02-03T01:22:30.971Z,95.40
2023-02-03T01:24:58.502Z,94.50
2023-02-03T01:27:26.046Z,92.40
2023-02-03T01:29:53.692Z,94.70
2023-02-03T01:32:21.274Z,92.80
2023-02-03T01:34:48.930Z,92.20
2023-02-03T01:37:18.052Z,91.20
2023-02-03T01:39:45.696Z,91.10
2023-02-03T01:42:14.501Z,91.20
2023-02-03T01:44:44.092Z,91.60
2023-02-03T01:47:47.340Z,90.70
2023-02-03T01:50:23.056Z,91.10
2023-02-03T01:52:59.406Z,90.20
2023-02-03T01:55:42.597Z,90.80
2023-02-03T01:58:16.001Z,91.70
2023-02-03T02:00:44.060Z,92.40
2023-02-03T02:03:11.681Z,92.20
2023-02-03T02:05:48.042Z,90.20
2023-02-03T02:08:18.323Z,92.50
2023-02-03T02:10:46.165Z,91.00
2023-02-03T02:13:14.875Z,91.10
2023-02-03T02:16:08.353Z,90.90
2023-02-03T02:18:48.062Z,91.40
2023-02-03T02:21:47.936Z,88.60
2023-02-03T02:24:39.954Z,85.90
2023-02-03T02:27:26.279Z,86.00
2023-02-03T02:30:00.425Z,89.50
2023-02-03T02:32:35.807Z,91.30
2023-02-03T02:35:12.944Z,90.40
2023-02-03T02:38:03.993Z,90.00
2023-02-03T02:40:41.469Z,91.70
2023-02-03T02:43:28.584Z,91.50
2023-02-03T02:46:04.066Z,90.80
2023-02-03T02:48:55.016Z,90.90
2023-02-03T02:51:24.193Z,91.10
2023-02-03T02:54:01.815Z,92.20
2023-02-03T02:56:31.655Z,91.30
2023-02-03T02:59:02.415Z,91.40
2023-02-03T03:01:30.049Z,92.00
2023-02-03T03:04:00.479Z,91.90
2023-02-03T03:06:37.799Z,91.50
2023-02-03T03:09:11.265Z,91.20
2023-02-03T03:11:47.090Z,90.40
2023-02-03T03:14:16.963Z,91.10
2023-02-03T03:16:50.495Z,92.00
2023-02-03T03:19:28.220Z,89.90
2023-02-03T03:22:01.364Z,91.90
2023-02-03T03:24:33.738Z,90.70
2023-02-03T03:27:22.536Z,90.00
2023-02-03T03:30:06.440Z,90.90
2023-02-03T03:32:34.347Z,91.00
2023-02-03T03:35:03.237Z,90.40
2023-02-03T03:37:36.766Z,90.10
2023-02-03T03:40:28.130Z,90.60
2023-02-03T03:43:07.819Z,90.90
2023-02-03T03:45:42.365Z,89.40
2023-02-03T03:48:26.377Z,89.10
2023-02-03T03:51:01.095Z,87.90
2023-02-03T03:53:32.524Z,90.30
2023-02-03T03:56:03.607Z,90.50
2023-02-03T03:58:32.763Z,89.60
2023-02-03T04:01:03.545Z,90.10
2023-02-03T04:03:47.453Z,90.40
2023-02-03T04:06:15.326Z,89.80
2023-02-03T04:08:42.859Z,90.30
2023-02-03T04:11:10.359Z,90.80
2023-02-03T04:13:37.835Z,88.70
2023-02-03T04:16:06.071Z,88.00
2023-02-03T04:18:33.561Z,89.20
2023-02-03T04:21:02.127Z,90.20
2023-02-03T04:23:29.646Z,88.00
2023-02-03T04:25:57.288Z,88.80
2023-02-03T04:28:24.785Z,88.70
2023-02-03T04:30:52.331Z,89.30
2023-02-03T04:33:19.932Z,89.80
2023-02-03T04:35:47.403Z,88.80
2023-02-03T04:38:14.911Z,88.70
2023-02-03T04:40:42.686Z,86.60
2023-02-03T04:43:10.166Z,86.70
2023-02-03T04:45:38.408Z,87.30
2023-02-03T04:48:06.062Z,89.50
2023-02-03T04:50:33.766Z,87.80
2023-02-03T04:53:01.326Z,87.90
2023-02-03T04:55:28.986Z,85.40
2023-02-03T04:58:00.469Z,87.40
2023-02-03T05:00:29.157Z,87.00
2023-02-03T05:02:56.924Z,86.70
2023-02-03T05:05:24.482Z,88.70
2023-02-03T05:07:52.020Z,87.50
2023-02-03T05:10:19.631Z,89.60
2023-02-03T05:12:47.189Z,89.50
2023-02-03T05:15:14.954Z,89.10
2023-02-03T05:17:42.467Z,88.40
2023-02-03T05:20:10.849Z,89.10
2023-02-03T05:22:38.489Z,87.90
2023-02-03T05:25:06.489Z,88.00
2023-02-03T05:27:34.036Z,86.20
2023-02-03T05:30:01.501Z,88.60
2023-02-03T05:32:29.355Z,87.30
2023-02-03T05:34:56.843Z,86.80
2023-02-03T05:37:24.352Z,89.80
2023-02-03T05:39:51.937Z,89.70
2023-02-03T05:42:19.446Z,90.00
2023-02-03T05:44:46.919Z,88.90
2023-02-03T05:47:14.575Z,86.60
2023-02-03T05:49:42.043Z,86.80
2023-02-03T05:52:09.601Z,89.20
2023-02-03T05:54:37.294Z,88.40
2023-02-03T05:57:04.817Z,88.20
2023-02-03T05:59:32.290Z,88.10
2023-02-03T06:01:59.800Z,87.00
2023-02-03T06:04:27.356Z,86.30
2023-02-03T06:06:54.931Z,86.10
2023-02-03T06:09:22.460Z,85.90
2023-02-03T06:11:49.963Z,86.60
2023-02-03T06:14:17.456Z,87.30
2023-02-03T06:16:45.377Z,88.50
2023-02-03T06:19:15.201Z,89.60
2023-02-03T06:21:43.767Z,89.80
2023-02-03T06:24:11.605Z,88.80
2023-02-03T06:26:39.114Z,88.20
2023-02-03T06:29:06.639Z,90.20
2023-02-03T06:31:34.263Z,87.50
2023-02-03T06:34:02.681Z,89.40
2023-02-03T06:36:30.283Z,88.10
2023-02-03T06:38:59.234Z,88.20
2023-02-03T06:41:27.714Z,87.70
2023-02-03T06:43:55.588Z,88.50
2023-02-03T06:46:23.309Z,89.30
2023-02-03T06:48:50.866Z,89.40
2023-02-03T06:51:18.336Z,88.70
2023-02-03T06:53:45.992Z,89.30
2023-02-03T06:56:13.516Z,90.00
2023-02-03T06:58:41.098Z,89.90
2023-02-03T07:01:08.719Z,90.00
2023-02-03T07:03:36.247Z,90.20
2023-02-03T07:06:03.939Z,90.00
2023-02-03T07:08:31.455Z,89.50
2023-02-03T07:10:59.023Z,90.20
2023-02-03T07:13:26.549Z,90.20
2023-02-03T07:15:54.043Z,90.20
2023-02-03T07:18:45.912Z,90.00
2023-02-03T07:21:12.897Z,89.80
2023-02-03T07:23:42.166Z,91.10
2023-02-03T07:26:10.952Z,90.70
2023-02-03T07:28:38.447Z,90.80
2023-02-03T07:31:08.196Z,90.30
2023-02-03T07:33:36.961Z,90.50
2023-02-03T07:36:05.222Z,90.60
2023-02-03T07:38:33.435Z,90.60
2023-02-03T07:41:01.077Z,90.00
2023-02-03T07:43:28.547Z,87.80
2023-02-03T07:45:56.220Z,87.20
2023-02-03T07:48:23.695Z,87.70
2023-02-03T07:50:52.899Z,90.10
2023-02-03T07:53:20.681Z,88.00
2023-02-03T07:55:48.379Z,87.70
2023-02-03T07:58:17.208Z,88.90
2023-02-03T08:00:44.703Z,87.80
2023-02-03T08:03:12.293Z,88.00
2023-02-03T08:05:40.092Z,87.10
2023-02-03T08:08:07.672Z,88.50
2023-02-03T08:10:35.261Z,86.70
2023-02-03T08:13:02.785Z,85.70
2023-02-03T08:15:30.511Z,86.50
2023-02-03T08:17:58.256Z,86.10
2023-02-03T08:20:25.926Z,85.40
2023-02-03T08:22:53.783Z,86.40
2023-02-03T08:25:22.740Z,86.00
2023-02-03T08:27:50.448Z,88.90
2023-02-03T08:30:23.635Z,87.10
2023-02-03T08:32:56.169Z,86.90
2023-02-03T08:35:24.347Z,85.70
2023-02-03T08:37:51.853Z,87.90
2023-02-03T08:40:19.604Z,88.70
2023-02-03T08:42:47.258Z,86.30
2023-02-03T08:45:14.871Z,87.60
2023-02-03T08:47:42.423Z,89.10
2023-02-03T08:50:10.671Z,90.10
2023-02-03T08:52:38.372Z,89.00
2023-02-03T08:55:06.403Z,89.30
2023-02-03T08:57:37.613Z,90.50
2023-02-03T09:00:06.514Z,91.10
2023-02-03T09:02:34.115Z,91.20
2023-02-03T09:05:01.884Z,91.40
2023-02-03T09:07:33.313Z,92.00
2023-02-03T09:10:00.931Z,92.20
2023-02-03T09:12:28.485Z,93.30
2023-02-03T09:14:56.125Z,94.00
2023-02-03T09:17:23.734Z,94.70
2023-02-03T09:19:51.268Z,96.30
2023-02-03T09:22:18.901Z,97.50
2023-02-03T09:24:46.473Z,99.60
2023-02-03T09:27:14.006Z,99.90
2023-02-03T09:29:41.619Z,99.90
2023-02-03T09:32:10.714Z,99.90
2023-02-03T09:34:40.061Z,99.90
2023-02-03T09:37:08.752Z,99.90
2023-02-03T09:39:36.469Z,99.90
2023-02-03T09:42:25.803Z,99.90
2023-02-03T09:45:18.241Z,99.90
2023-02-03T09:47:46.172Z,99.90
2023-02-03T09:50:27.000Z,99.90
2023-02-03T09:52:55.664Z,99.90
2023-02-03T09:55:26.464Z,99.90
2023-02-03T09:58:03.097Z,99.90
2023-02-03T10:00:35.766Z,99.90
2023-02-03T10:03:30.077Z,99.90
2023-02-03T10:06:11.155Z,99.90
2023-02-03T10:09:12.929Z,99.90
2023-02-03T10:11:49.972Z,99.90
2023-02-03T10:14:20.353Z,99.90
2023-02-03T10:17:08.962Z,99.90
2023-02-03T10:19:53.480Z,99.90
2023-02-03T10:22:27.432Z,99.90
2023-02-03T10:25:25.150Z,99.90
2023-02-03T10:27:58.869Z,99.90
2023-02-03T10:30:29.557Z,99.90
2023-02-03T10:33:10.003Z,99.90
2023-02-03T10:35:45.882Z,99.90
2023-02-03T10:38:41.192Z,99.90
2023-02-03T10:41:10.355Z,99.90
2023-02-03T10:43:53.072Z,99.90
2023-02-03T10:46:29.888Z,99.90
2023-02-03T10:48:58.170Z,99.90
2023-02-03T10:51:30.891Z,99.90
2023-02-03T10:54:00.356Z,99.90
2023-02-03T10:56:36.742Z,99.90
2023-02-03T10:59:04.994Z,99.90
2023-02-03T11:01:45.314Z,99.90
2023-02-03T11:04:29.611Z,99.90
2023-02-03T11:07:03.334Z,99.90
2023-02-03T11:09:42.891Z,99.90
2023-02-03T11:12:16.624Z,99.90
2023-02-03T11:14:49.634Z,99.90
2023-02-03T11:17:29.802Z,99.90
2023-02-03T11:20:13.283Z,99.90
2023-02-03T11:22:43.357Z,99.90
2023-02-03T11:25:27.712Z,99.90
2023-02-03T11:27:57.019Z,99.90
2023-02-03T11:30:27.818Z,99.90
2023-02-03T11:32:56.690Z,99.90
2023-02-03T11:35:30.073Z,99.90
2023-02-03T11:38:00.656Z,99.90
2023-02-03T11:40:31.166Z,99.90
2023-02-03T11:43:01.952Z,99.90
2023-02-03T11:45:30.822Z,99.90
2023-02-03T11:48:21.639Z,99.90
2023-02-03T11:51:08.496Z,99.90
2023-02-03T11:53:56.573Z,99.90
2023-02-03T11:56:32.927Z,99.90
2023-02-03T11:59:20.739Z,99.90
2023-02-03T12:02:01.128Z,99.90
2023-02-03T12:04:51.972Z,99.90
2023-02-03T12:08:04.097Z,99.90
2023-02-03T12:10:39.975Z,99.90
2023-02-03T12:13:42.952Z,99.90
2023-02-03T12:16:28.805Z,99.90
2023-02-03T12:19:22.579Z,99.90
2023-02-03T12:22:09.878Z,99.90
2023-02-03T12:24:58.680Z,99.90
2023-02-03T12:27:47.011Z,99.90
2023-02-03T12:30:41.216Z,99.90
2023-02-03T12:33:19.136Z,99.90
2023-02-03T12:35:58.158Z,99.90
2023-02-03T12:38:39.145Z,99.90
2023-02-03T12:41:18.504Z,99.90
2023-02-03T12:43:53.344Z,99.90
2023-02-03T12:46:43.437Z,99.90
2023-02-03T12:49:25.354Z,99.90
2023-02-03T12:52:03.281Z,99.90
2023-02-03T12:54:52.701Z,99.90
2023-02-03T12:57:41.545Z,99.90
2023-02-03T13:00:31.300Z,99.90
2023-02-03T13:03:24.310Z,99.90
2023-02-03T13:06:06.620Z,99.90
2023-02-03T13:08:39.431Z,99.90
2023-02-03T13:11:25.643Z,99.90
2023-02-03T13:13:56.998Z,99.90
2023-02-03T13:16:30.447Z,99.90
2023-02-03T13:19:03.741Z,99.90
2023-02-03T13:21:32.527Z,99.90
2023-02-03T13:24:00.262Z,99.90
2023-02-03T13:26:54.138Z,99.90
2023-02-03T13:29:54.087Z,99.90
2023-02-03T13:32:32.547Z,99.90
2023-02-03T13:35:24.765Z,99.90
2023-02-03T13:38:08.824Z,99.90
2023-02-03T13:41:03.886Z,99.90
2023-02-03T13:43:39.375Z,99.90
2023-02-03T13:46:11.073Z,99.90
2023-02-03T13:48:38.762Z,99.90
2023-02-03T13:51:17.365Z,99.90
2023-02-03T13:53:47.578Z,99.90
2023-02-03T13:56:23.915Z,99.90
2023-02-03T13:59:06.373Z,99.90
2023-02-03T14:01:42.320Z,99.90
2023-02-03T14:04:31.910Z,99.90
2023-02-03T14:07:02.636Z,99.90
2023-02-03T14:09:34.580Z,99.90
2023-02-03T14:12:33.451Z,99.90
2023-02-03T14:15:16.640Z,99.90
2023-02-03T14:17:44.167Z,99.90
2023-02-03T14:20:27.320Z,99.90
2023-02-03T14:23:19.821Z,99.90
2023-02-03T14:25:55.579Z,99.90
2023-02-03T14:28:25.416Z,99.90
2023-02-03T14:31:12.344Z,99.90
2023-02-03T14:33:49.390Z,99.90
2023-02-03T14:36:35.210Z,99.90
2023-02-03T14:39:18.192Z,99.90
2023-02-03T14:41:57.760Z,99.90
2023-02-03T14:44:44.265Z,99.90
2023-02-03T14:47:29.762Z,99.90
2023-02-03T14:50:07.078Z,99.90
2023-02-03T14:52:37.522Z,99.90
2023-02-03T14:55:24.039Z,99.90
2023-02-03T14:57:56.497Z,99.90
2023-02-03T15:00:25.605Z,99.90
2023-02-03T15:03:11.335Z,99.90
2023-02-03T15:05:40.588Z,99.90
2023-02-03T15:08:36.284Z,99.90
2023-02-03T15:11:22.824Z,99.90
2023-02-03T15:13:50.978Z,99.90
2023-02-03T15:16:21.342Z,99.90
2023-02-03T15:19:08.232Z,99.90
2023-02-03T15:21:42.501Z,99.90
2023-02-03T15:24:14.785Z,99.90
2023-02-03T15:26:51.786Z,99.90
2023-02-03T15:29:29.035Z,99.90
2023-02-03T15:32:20.322Z,99.90
2023-02-03T15:34:52.678Z,99.90
2023-02-03T15:37:29.003Z,99.90
2023-02-03T15:40:25.503Z,99.90
2023-02-03T15:42:58.225Z,99.90
2023-02-03T15:45:37.657Z,99.90
2023-02-03T15:48:17.391Z,99.90
2023-02-03T15:51:05.311Z,99.90
2023-02-03T15:53:54.986Z,99.90
2023-02-03T15:56:38.966Z,99.90
2023-02-03T15:59:19.330Z,99.90
2023-02-03T16:01:47.263Z,99.90
2023-02-03T16:04:15.593Z,99.90
2023-02-03T16:06:47.806Z,99.90
2023-02-03T16:09:34.851Z,99.90
2023-02-03T16:12:28.837Z,99.90
2023-02-03T16:14:58.169Z,99.90
2023-02-03T16:17:30.078Z,99.90
2023-02-03T16:20:13.333Z,99.90
2023-02-03T16:22:45.943Z,99.90
2023-02-03T16:25:24.985Z,99.90
2023-02-03T16:28:21.532Z,99.90
2023-02-03T16:31:14.007Z,99.90
2023-02-03T16:34:04.846Z,99.90
2023-02-03T16:36:50.896Z,99.90
2023-02-03T16:39:37.538Z,99.90
2023-02-03T16:42:33.150Z,99.90
2023-02-03T16:45:19.171Z,99.90
2023-02-03T16:48:05.831Z,99.90
2023-02-03T16:50:53.950Z,99.90
2023-02-03T16:53:32.912Z,99.90
2023-02-03T16:56:04.519Z,99.90
2023-02-03T16:58:32.790Z,99.90
2023-02-03T17:01:02.852Z,99.90
2023-02-03T17:03:33.282Z,99.90
2023-02-03T17:06:12.200Z,99.90
2023-02-03T17:08:41.519Z,99.90
2023-02-03T17:11:17.276Z,99.90
2023-02-03T17:13:46.154Z,99.90
2023-02-03T17:16:17.438Z,99.90
2023-02-03T17:18:46.897Z,99.90
2023-02-03T17:21:18.513Z,99.90
2023-02-03T17:23:46.590Z,99.90
2023-02-03T17:26:14.880Z,99.90
2023-02-03T17:28:44.189Z,99.90
2023-02-03T17:31:18.060Z,99.90
2023-02-03T17:33:46.393Z,99.90
2023-02-03T17:36:17.048Z,99.90
2023-02-03T17:55:22.049Z,99.90
2023-02-03T17:57:50.339Z,99.90
2023-02-03T18:00:18.984Z,99.90
2023-02-03T18:02:51.347Z,99.90
2023-02-03T18:05:19.247Z,99.90
2023-02-03T18:10:21.441Z,99.90
2023-02-03T18:12:49.680Z,99.90
2023-02-03T18:15:19.237Z,99.90
2023-02-03T18:17:47.317Z,99.90
2023-02-03T18:20:15.204Z,99.90
2023-02-03T18:22:44.324Z,99.90
2023-02-03T18:25:18.534Z,99.90
2023-02-03T18:27:47.085Z,99.90
2023-02-03T18:30:16.080Z,99.90
2023-02-03T18:32:45.057Z,99.90
2023-02-03T18:35:17.089Z,99.90
2023-02-03T18:37:45.674Z,99.90
2023-02-03T18:40:14.251Z,99.90
2023-02-03T18:42:42.623Z,99.90
2023-02-03T18:45:12.847Z,99.90
2023-02-03T18:47:43.197Z,99.90
2023-02-03T18:50:11.947Z,99.90
2023-02-03T18:52:40.963Z,99.90
2023-02-03T18:55:09.886Z,99.90
2023-02-03T18:57:38.276Z,99.90
2023-02-03T19:00:08.822Z,99.90
2023-02-03T19:02:38.848Z,99.90
2023-02-03T19:05:10.219Z,99.90
2023-02-03T19:07:39.498Z,99.90
2023-02-03T19:10:08.992Z,99.90
2023-02-03T19:12:38.010Z,99.90
2023-02-03T19:15:10.414Z,99.90
2023-02-03T19:17:39.223Z,99.90
2023-02-03T19:20:14.784Z,99.90
2023-02-03T19:22:43.408Z,99.90
2023-02-03T19:25:12.761Z,99.90
2023-02-03T19:27:42.751Z,99.90
2023-02-03T19:30:12.621Z,99.90
2023-02-03T19:32:41.530Z,99.90
2023-02-03T19:35:10.217Z,99.90
2023-02-03T19:37:39.070Z,99.90
2023-02-03T19:40:09.713Z,99.90
2023-02-03T19:42:38.492Z,99.90
2023-02-03T19:45:09.399Z,99.90
2023-02-03T19:47:38.336Z,99.90
2023-02-03T19:50:07.550Z,99.90
2023-02-03T19:52:37.516Z,99.90
2023-02-03T19:55:06.963Z,99.90
2023-02-03T19:57:41.264Z,99.90
2023-02-03T20:00:11.622Z,99.90
2023-02-03T20:02:43.801Z,99.90
2023-02-03T20:05:12.823Z,99.90
2023-02-03T20:07:41.675Z,99.90
2023-02-03T20:10:11.116Z,99.90
2023-02-03T20:12:39.795Z,99.90
2023-02-03T20:15:08.312Z,99.90
2023-02-03T20:17:38.720Z,99.90
2023-02-03T20:20:12.172Z,99.90
2023-02-03T20:22:41.199Z,99.90
2023-02-03T20:25:10.315Z,99.90
2023-02-03T20:27:39.042Z,99.90
2023-02-03T20:30:11.116Z,99.90
2023-02-03T20:32:40.616Z,99.90
2023-02-03T20:35:10.534Z,99.90
2023-02-03T20:37:39.299Z,99.90
2023-02-03T20:40:17.738Z,99.90
2023-02-03T20:42:48.687Z,99.90
2023-02-03T20:45:19.655Z,99.90
2023-02-03T20:47:48.797Z,99.90
2023-02-03T20:50:31.595Z,99.90
2023-02-03T20:53:14.147Z,99.90
2023-02-03T20:55:46.002Z,99.90
2023-02-03T20:58:27.055Z,99.90
2023-02-03T21:00:58.289Z,99.90
2023-02-03T21:03:46.753Z,99.90
2023-02-03T21:06:17.798Z,99.90
2023-02-03T21:08:48.528Z,99.90
2023-02-03T21:11:26.699Z,99.90
2023-02-03T21:13:57.344Z,99.90
2023-02-03T21:16:39.081Z,99.90
2023-02-03T21:19:13.366Z,99.90
2023-02-03T21:21:43.167Z,99.90
2023-02-03T21:24:27.877Z,99.90
2023-02-03T21:26:58.984Z,99.90
2023-02-03T21:29:33.982Z,99.90
2023-02-03T21:32:04.375Z,99.90
2023-02-03T21:34:35.409Z,99.90
2023-02-03T21:37:39.588Z,99.90
2023-02-03T21:40:27.878Z,99.90
2023-02-03T21:42:57.208Z,99.90
2023-02-03T21:45:36.095Z,99.90
2023-02-03T21:48:28.186Z,99.90
2023-02-03T21:51:02.410Z,99.90
2023-02-03T21:53:35.501Z,99.90
2023-02-03T21:56:23.096Z,99.90
2023-02-03T21:58:54.770Z,99.90
2023-02-03T22:01:24.831Z,99.90
2023-02-03T22:03:55.122Z,99.90
2023-02-03T22:06:29.712Z,99.90
2023-02-03T22:08:58.934Z,99.90
2023-02-03T22:11:29.332Z,99.90
2023-02-03T22:13:57.948Z,99.90
2023-02-03T22:16:26.497Z,99.90
2023-02-03T22:18:54.235Z,99.90
2023-02-03T22:21:22.538Z,99.90
2023-02-03T22:23:50.481Z,99.90
2023-02-03T22:26:18.983Z,99.90
2023-02-03T22:28:46.943Z,99.90
2023-02-03T22:31:15.300Z,99.90
2023-02-03T22:33:43.730Z,99.90
2023-02-03T22:36:11.733Z,99.90
2023-02-03T22:38:40.839Z,99.90
2023-02-03T22:41:11.944Z,99.90
2023-02-03T22:43:40.480Z,99.90
2023-02-03T22:46:08.543Z,99.90
2023-02-03T22:48:36.284Z,99.90
2023-02-03T22:51:03.954Z,99.90
2023-02-03T22:53:31.756Z,99.90
2023-02-03T22:55:59.325Z,99.90
2023-02-03T22:58:26.950Z,99.90
2023-02-03T23:00:54.877Z,99.90
2023-02-03T23:03:22.444Z,99.90
2023-02-03T23:05:50.202Z,99.90
2023-02-03T23:08:17.817Z,99.90
2023-02-03T23:10:45.441Z,99.90
2023-02-03T23:13:13.008Z,99.90
2023-02-03T23:15:40.693Z,99.90
2023-02-03T23:18:08.369Z,99.90
2023-02-03T23:20:35.917Z,99.90
2023-02-03T23:23:03.570Z,99.90
2023-02-03T23:25:31.203Z,99.90
2023-02-03T23:27:58.734Z,99.90
2023-02-03T23:30:26.379Z,99.90
2023-02-03T23:32:53.952Z,99.90
2023-02-03T23:35:40.967Z,99.90
2023-02-03T23:38:08.498Z,99.90
2023-02-03T23:40:36.137Z,99.90
2023-02-03T23:43:03.891Z,99.90
2023-02-03T23:45:31.480Z,99.90
2023-02-03T23:47:59.094Z,99.90
2023-02-03T23:50:26.645Z,99.90
2023-02-03T23:52:54.345Z,99.90
2023-02-03T23:55:23.506Z,99.90
2023-02-03T23:57:51.424Z,99.90
